createdAt,value
2017-03-31T00:00:14.980Z,0
2017-03-31T00:01:15.038Z,0
2017-03-31T00:02:15.053Z,0
2017-03-31T00:03:15.082Z,0
2017-03-31T00:04:15.113Z,0
2017-03-31T00:05:15.146Z,0
2017-03-31T00:06:15.205Z,0
2017-03-31T00:07:15.224Z,0
2017-03-31T00:08:15.246Z,0
2017-03-31T00:09:15.287Z,0
2017-03-31T00:10:15.318Z,0
2017-03-31T00:11:15.350Z,0
2017-03-31T00:12:15.379Z,0
2017-03-31T00:13:15.405Z,0
2017-03-31T00:14:15.428Z,0
2017-03-31T00:15:15.471Z,0
2017-03-31T00:16:15.478Z,0
2017-03-31T00:17:15.503Z,0
2017-03-31T00:18:15.580Z,0
2017-03-31T00:19:15.600Z,0
2017-03-31T00:20:15.615Z,0
2017-03-31T00:21:15.646Z,0
2017-03-31T00:22:15.705Z,0
2017-03-31T00:23:15.736Z,0
2017-03-31T00:24:15.732Z,0
2017-03-31T00:25:15.778Z,0
2017-03-31T00:26:15.828Z,0
2017-03-31T00:27:15.857Z,0
2017-03-31T00:28:15.871Z,0
2017-03-31T00:29:15.901Z,0
2017-03-31T00:30:15.977Z,0
2017-03-31T00:31:15.969Z,0
2017-03-31T00:32:15.997Z,0
2017-03-31T00:33:16.042Z,0
2017-03-31T00:34:16.081Z,0
2017-03-31T00:35:16.106Z,0
2017-03-31T00:36:16.123Z,0
2017-03-31T00:37:16.176Z,0
2017-03-31T00:38:16.210Z,0
2017-03-31T00:39:16.232Z,0
2017-03-31T00:40:16.281Z,0
2017-03-31T00:41:16.281Z,0
2017-03-31T00:42:16.332Z,0
2017-03-31T00:43:16.362Z,0
2017-03-31T00:44:16.397Z,0
2017-03-31T00:45:16.421Z,0
2017-03-31T00:46:16.445Z,0
2017-03-31T00:47:16.485Z,0
2017-03-31T00:48:16.526Z,0
2017-03-31T00:49:16.533Z,0
2017-03-31T00:50:16.573Z,0
2017-03-31T00:51:16.577Z,0
2017-03-31T00:52:16.620Z,0
2017-03-31T00:53:16.668Z,0
2017-03-31T00:54:16.714Z,0
2017-03-31T00:55:16.715Z,0
2017-03-31T00:56:16.752Z,0
2017-03-31T00:57:16.798Z,0
2017-03-31T00:58:16.805Z,0
2017-03-31T00:59:16.849Z,0
2017-03-31T01:00:16.904Z,0
2017-03-31T01:01:16.928Z,0
2017-03-31T01:02:16.960Z,0
2017-03-31T01:03:16.998Z,0
2017-03-31T01:04:17.019Z,0
2017-03-31T01:05:17.046Z,0
2017-03-31T01:06:17.076Z,0
2017-03-31T01:07:17.115Z,0
2017-03-31T01:08:17.146Z,0
2017-03-31T01:09:17.183Z,0
2017-03-31T01:10:17.206Z,0
2017-03-31T01:11:17.223Z,0
2017-03-31T01:12:17.249Z,0
2017-03-31T01:13:17.311Z,0
2017-03-31T01:14:17.332Z,0
2017-03-31T01:15:17.357Z,0
2017-03-31T01:16:17.379Z,0
2017-03-31T01:17:17.416Z,0
2017-03-31T01:18:17.456Z,0
2017-03-31T01:19:17.500Z,0
2017-03-31T01:20:17.517Z,0
2017-03-31T01:21:17.564Z,0
2017-03-31T01:22:17.543Z,0
2017-03-31T01:23:17.597Z,0
2017-03-31T01:24:17.627Z,0
2017-03-31T01:25:17.678Z,0
2017-03-31T01:26:17.687Z,0
2017-03-31T01:27:17.721Z,0
2017-03-31T01:28:17.745Z,0
2017-03-31T01:29:17.795Z,0
2017-03-31T01:30:17.828Z,0
2017-03-31T01:31:17.845Z,0
2017-03-31T01:32:17.890Z,0
2017-03-31T01:33:17.929Z,0
2017-03-31T01:34:17.941Z,0
2017-03-31T01:35:17.934Z,0
2017-03-31T01:36:18.023Z,0
2017-03-31T01:37:18.054Z,0
2017-03-31T01:38:18.088Z,0
2017-03-31T01:39:18.103Z,0
2017-03-31T01:40:18.144Z,0
2017-03-31T01:41:18.157Z,0
2017-03-31T01:42:18.197Z,0
2017-03-31T01:43:18.227Z,0
2017-03-31T01:44:18.264Z,0
2017-03-31T01:45:18.265Z,0
2017-03-31T01:46:18.344Z,0
2017-03-31T01:47:18.316Z,0
2017-03-31T01:48:18.370Z,0
2017-03-31T01:49:18.396Z,0
2017-03-31T01:50:18.457Z,0
2017-03-31T01:51:18.444Z,0
2017-03-31T01:52:18.516Z,0
2017-03-31T01:53:18.524Z,0
2017-03-31T01:54:18.574Z,0
2017-03-31T01:55:18.574Z,0
2017-03-31T01:56:18.617Z,0
2017-03-31T01:57:18.685Z,0
2017-03-31T01:58:18.655Z,0
2017-03-31T01:59:18.708Z,0
2017-03-31T02:00:18.768Z,0
2017-03-31T02:01:18.817Z,0
2017-03-31T02:02:18.808Z,0
2017-03-31T02:03:18.870Z,0
2017-03-31T02:04:18.822Z,0
2017-03-31T02:05:18.921Z,0
2017-03-31T02:06:19.140Z,0
2017-03-31T02:07:18.983Z,0
2017-03-31T02:08:18.956Z,0
2017-03-31T02:09:19.036Z,0
2017-03-31T02:10:19.052Z,0
2017-03-31T02:11:19.089Z,0
2017-03-31T02:12:19.128Z,0
2017-03-31T02:13:19.160Z,0
2017-03-31T02:14:19.170Z,0
2017-03-31T02:15:19.201Z,0
2017-03-31T02:16:19.241Z,0
2017-03-31T02:17:19.287Z,0
2017-03-31T02:18:19.307Z,0
2017-03-31T02:19:19.336Z,0
2017-03-31T02:20:19.377Z,0
2017-03-31T02:21:19.360Z,0
2017-03-31T02:22:19.416Z,0
2017-03-31T02:23:19.451Z,0
2017-03-31T02:24:19.463Z,0
2017-03-31T02:25:19.524Z,0
2017-03-31T02:26:19.553Z,0
2017-03-31T02:27:19.600Z,0
2017-03-31T02:28:19.595Z,0
2017-03-31T02:29:19.648Z,0
2017-03-31T02:30:19.679Z,0
2017-03-31T02:31:19.706Z,0
2017-03-31T02:32:19.745Z,0
2017-03-31T02:33:19.767Z,0
2017-03-31T02:34:19.803Z,0
2017-03-31T02:35:19.843Z,0
2017-03-31T02:36:19.859Z,0
2017-03-31T02:37:19.878Z,0
2017-03-31T02:38:19.899Z,0
2017-03-31T02:39:19.960Z,0
2017-03-31T02:40:19.969Z,0
2017-03-31T02:41:20.020Z,0
2017-03-31T02:42:20.038Z,0
2017-03-31T02:43:20.073Z,0
2017-03-31T02:44:20.108Z,0
2017-03-31T02:45:20.125Z,0
2017-03-31T02:46:20.170Z,0
2017-03-31T02:47:20.177Z,0
2017-03-31T02:48:20.229Z,0
2017-03-31T02:49:20.255Z,0
2017-03-31T02:50:20.291Z,0
2017-03-31T02:51:20.326Z,0
2017-03-31T02:52:20.358Z,0
2017-03-31T02:53:20.365Z,0
2017-03-31T02:54:20.399Z,0
2017-03-31T02:55:20.419Z,0
2017-03-31T02:56:20.457Z,0
2017-03-31T02:57:20.508Z,0
2017-03-31T02:58:20.539Z,0
2017-03-31T02:59:20.557Z,0
2017-03-31T03:00:20.600Z,0
2017-03-31T03:01:20.639Z,0
2017-03-31T03:02:20.645Z,0
2017-03-31T03:03:20.703Z,0
2017-03-31T03:04:20.707Z,0
2017-03-31T03:05:20.771Z,0
2017-03-31T03:06:20.757Z,0
2017-03-31T03:07:20.804Z,0
2017-03-31T03:08:20.808Z,0
2017-03-31T03:09:20.842Z,0
2017-03-31T03:10:20.895Z,0
2017-03-31T03:11:20.924Z,0
2017-03-31T03:12:20.940Z,0
2017-03-31T03:13:20.993Z,0
2017-03-31T03:14:21.023Z,0
2017-03-31T03:15:21.049Z,0
2017-03-31T03:16:21.080Z,0
2017-03-31T03:17:21.105Z,0
2017-03-31T03:18:21.122Z,0
2017-03-31T03:19:21.151Z,0
2017-03-31T03:20:21.201Z,0
2017-03-31T03:21:21.237Z,0
2017-03-31T03:22:21.257Z,0
2017-03-31T03:23:21.275Z,0
2017-03-31T03:24:21.311Z,0
2017-03-31T03:25:21.356Z,0
2017-03-31T03:26:21.370Z,0
2017-03-31T03:27:21.408Z,0
2017-03-31T03:28:21.468Z,0
2017-03-31T03:29:21.494Z,0
2017-03-31T03:30:21.490Z,0
2017-03-31T03:31:21.540Z,0
2017-03-31T03:32:21.558Z,0
2017-03-31T03:33:21.566Z,0
2017-03-31T03:34:21.619Z,0
2017-03-31T03:35:21.658Z,0
2017-03-31T03:36:21.669Z,0
2017-03-31T03:37:21.719Z,0
2017-03-31T03:38:21.744Z,0
2017-03-31T03:39:21.756Z,0
2017-03-31T03:40:21.802Z,0
2017-03-31T03:41:21.816Z,0
2017-03-31T03:42:21.865Z,0
2017-03-31T03:43:21.888Z,0
2017-03-31T03:44:21.947Z,0
2017-03-31T03:45:21.953Z,0
2017-03-31T03:46:21.969Z,0
2017-03-31T03:47:22.035Z,0
2017-03-31T03:48:22.037Z,0
2017-03-31T03:49:22.043Z,0
2017-03-31T03:50:22.097Z,0
2017-03-31T03:51:22.128Z,0
2017-03-31T03:52:22.143Z,0
2017-03-31T03:53:22.173Z,0
2017-03-31T03:54:22.220Z,0
2017-03-31T03:55:22.603Z,0
2017-03-31T03:56:22.270Z,0
2017-03-31T03:57:22.298Z,0
2017-03-31T03:58:22.338Z,0
2017-03-31T03:59:22.348Z,0
2017-03-31T04:00:22.579Z,0
2017-03-31T04:01:22.502Z,0
2017-03-31T04:02:22.489Z,0
2017-03-31T04:03:22.518Z,0
2017-03-31T04:04:22.585Z,0
2017-03-31T04:05:22.722Z,0
2017-03-31T04:06:22.618Z,0
2017-03-31T04:07:22.633Z,0
2017-03-31T04:08:22.713Z,0
2017-03-31T04:09:22.743Z,0
2017-03-31T04:10:22.750Z,0
2017-03-31T04:11:22.757Z,0
2017-03-31T04:12:22.782Z,0
2017-03-31T04:13:22.817Z,0
2017-03-31T04:14:22.904Z,4
2017-03-31T04:15:22.898Z,4
2017-03-31T04:16:22.918Z,0
2017-03-31T04:17:22.956Z,4
2017-03-31T04:18:22.983Z,4
2017-03-31T04:19:23.028Z,4
2017-03-31T04:20:23.021Z,8
2017-03-31T04:21:23.065Z,8
2017-03-31T04:22:23.093Z,8
2017-03-31T04:23:23.110Z,8
2017-03-31T04:24:23.188Z,8
2017-03-31T04:25:23.202Z,12
2017-03-31T04:26:23.208Z,16
2017-03-31T04:27:23.217Z,16
2017-03-31T04:28:23.253Z,20
2017-03-31T04:29:23.291Z,24
2017-03-31T04:30:23.331Z,28
2017-03-31T04:31:23.405Z,32
2017-03-31T04:32:23.390Z,40
2017-03-31T04:33:23.502Z,44
2017-03-31T04:34:23.471Z,52
2017-03-31T04:35:23.493Z,60
2017-03-31T04:36:23.512Z,68
2017-03-31T04:37:23.564Z,76
2017-03-31T04:38:23.598Z,84
2017-03-31T04:39:23.604Z,92
2017-03-31T04:40:23.622Z,104
2017-03-31T04:41:23.691Z,112
2017-03-31T04:42:23.710Z,124
2017-03-31T04:43:23.715Z,128
2017-03-31T04:44:23.778Z,140
2017-03-31T04:45:23.767Z,156
2017-03-31T04:46:23.835Z,168
2017-03-31T04:47:23.906Z,188
2017-03-31T04:48:23.930Z,208
2017-03-31T04:49:23.906Z,232
2017-03-31T04:50:24.092Z,252
2017-03-31T04:51:24.061Z,280
2017-03-31T04:52:24.015Z,308
2017-03-31T04:53:24.033Z,336
2017-03-31T04:54:24.043Z,368
2017-03-31T04:55:24.208Z,396
2017-03-31T04:56:24.095Z,428
2017-03-31T04:57:24.147Z,464
2017-03-31T04:58:24.184Z,500
2017-03-31T04:59:24.168Z,532
2017-03-31T05:00:31.752Z,572
2017-03-31T05:01:24.259Z,604
2017-03-31T05:02:24.286Z,640
2017-03-31T05:03:24.303Z,680
2017-03-31T05:04:24.442Z,716
2017-03-31T05:05:24.535Z,748
2017-03-31T05:06:24.519Z,780
2017-03-31T05:07:24.423Z,808
2017-03-31T05:08:24.501Z,844
2017-03-31T05:09:24.529Z,876
2017-03-31T05:10:24.542Z,920
2017-03-31T05:11:24.553Z,960
2017-03-31T05:12:24.589Z,1004
2017-03-31T05:13:24.653Z,1052
2017-03-31T05:14:24.676Z,1100
2017-03-31T05:15:24.687Z,1140
2017-03-31T05:16:24.730Z,1176
2017-03-31T05:17:24.776Z,1212
2017-03-31T05:18:24.771Z,1256
2017-03-31T05:19:24.812Z,1300
2017-03-31T05:20:24.835Z,1336
2017-03-31T05:21:24.893Z,1372
2017-03-31T05:22:24.902Z,1408
2017-03-31T05:23:24.902Z,1448
2017-03-31T05:24:25.427Z,1484
2017-03-31T05:25:24.973Z,1524
2017-03-31T05:26:25.028Z,1564
2017-03-31T05:27:25.075Z,1608
2017-03-31T05:28:25.088Z,1652
2017-03-31T05:29:25.085Z,1708
2017-03-31T05:30:25.140Z,1760
2017-03-31T05:31:25.478Z,1816
2017-03-31T05:32:25.470Z,1872
2017-03-31T05:33:25.240Z,1928
2017-03-31T05:34:25.352Z,1980
2017-03-31T05:35:25.305Z,2036
2017-03-31T05:36:25.486Z,2088
2017-03-31T05:37:25.342Z,2132
2017-03-31T05:38:25.433Z,2172
2017-03-31T05:39:25.432Z,2204
2017-03-31T05:40:25.446Z,2232
2017-03-31T05:41:25.472Z,2252
2017-03-31T05:42:25.496Z,2284
2017-03-31T05:43:25.576Z,2324
2017-03-31T05:44:25.546Z,2392
2017-03-31T05:45:25.604Z,2508
2017-03-31T05:46:25.696Z,2648
2017-03-31T05:47:25.713Z,2788
2017-03-31T05:48:25.702Z,2856
2017-03-31T05:49:25.927Z,2912
2017-03-31T05:50:25.756Z,2980
2017-03-31T05:51:25.847Z,2952
2017-03-31T05:52:25.828Z,2940
2017-03-31T05:53:26.251Z,2940
2017-03-31T05:54:26.013Z,3040
2017-03-31T05:55:25.926Z,3052
2017-03-31T05:56:26.058Z,3104
2017-03-31T05:57:26.056Z,3192
2017-03-31T05:58:26.018Z,3208
2017-03-31T05:59:26.188Z,3308
2017-03-31T06:00:34.976Z,3384
2017-03-31T06:01:26.216Z,3256
2017-03-31T06:02:26.303Z,3344
2017-03-31T06:03:26.310Z,3548
2017-03-31T06:04:26.737Z,3684
2017-03-31T06:05:26.362Z,3756
2017-03-31T06:06:26.413Z,3624
2017-03-31T06:07:26.432Z,3692
2017-03-31T06:08:26.451Z,3748
2017-03-31T06:09:26.504Z,3716
2017-03-31T06:10:26.513Z,3832
2017-03-31T06:11:26.571Z,3896
2017-03-31T06:12:26.603Z,3956
2017-03-31T06:13:26.604Z,3840
2017-03-31T06:14:26.617Z,3692
2017-03-31T06:15:26.687Z,3368
2017-03-31T06:16:26.714Z,3216
2017-03-31T06:17:26.733Z,3272
2017-03-31T06:18:26.819Z,3560
2017-03-31T06:19:26.830Z,3892
2017-03-31T06:20:26.922Z,4032
2017-03-31T06:21:26.854Z,3972
2017-03-31T06:22:26.920Z,4072
2017-03-31T06:23:26.969Z,4624
2017-03-31T06:24:27.015Z,5332
2017-03-31T06:25:27.004Z,5968
2017-03-31T06:26:27.041Z,6176
2017-03-31T06:27:27.068Z,6136
2017-03-31T06:28:27.115Z,6240
2017-03-31T06:29:27.138Z,6272
2017-03-31T06:30:27.592Z,6432
2017-03-31T06:31:27.312Z,6448
2017-03-31T06:32:27.342Z,6300
2017-03-31T06:33:27.253Z,6328
2017-03-31T06:34:27.327Z,6452
2017-03-31T06:35:27.478Z,6684
2017-03-31T06:36:27.382Z,6752
2017-03-31T06:37:27.427Z,6784
2017-03-31T06:38:27.443Z,6768
2017-03-31T06:39:27.465Z,6664
2017-03-31T06:40:27.602Z,6544
2017-03-31T06:41:27.579Z,6524
2017-03-31T06:42:27.622Z,6500
2017-03-31T06:43:27.651Z,6288
2017-03-31T06:44:27.633Z,6324
2017-03-31T06:45:28.070Z,6388
2017-03-31T06:46:27.704Z,6432
2017-03-31T06:47:27.787Z,6616
2017-03-31T06:48:27.823Z,6908
2017-03-31T06:49:27.817Z,7076
2017-03-31T06:50:28.160Z,7140
2017-03-31T06:51:28.286Z,7032
2017-03-31T06:52:27.914Z,7176
2017-03-31T06:53:27.966Z,7396
2017-03-31T06:54:28.051Z,7468
2017-03-31T06:55:28.037Z,7560
2017-03-31T06:56:28.096Z,7344
2017-03-31T06:57:28.154Z,7064
2017-03-31T06:58:28.133Z,7064
2017-03-31T06:59:28.178Z,7108
2017-03-31T07:00:28.227Z,7284
2017-03-31T07:01:28.278Z,7492
2017-03-31T07:02:28.344Z,7328
2017-03-31T07:03:28.365Z,7184
2017-03-31T07:04:28.466Z,7356
2017-03-31T07:05:28.384Z,7560
2017-03-31T07:06:28.469Z,7536
2017-03-31T07:07:28.503Z,7940
2017-03-31T07:08:28.569Z,8468
2017-03-31T07:09:28.587Z,8648
2017-03-31T07:10:28.589Z,8512
2017-03-31T07:11:28.649Z,8620
2017-03-31T07:12:28.647Z,8972
2017-03-31T07:13:28.745Z,8936
2017-03-31T07:14:28.756Z,8332
2017-03-31T07:15:29.260Z,8048
2017-03-31T07:16:28.813Z,7632
2017-03-31T07:17:28.862Z,7632
2017-03-31T07:18:28.888Z,7728
2017-03-31T07:19:28.932Z,7692
2017-03-31T07:20:28.976Z,7628
2017-03-31T07:21:29.069Z,7628
2017-03-31T07:22:29.090Z,7628
2017-03-31T07:23:29.078Z,7688
2017-03-31T07:24:29.322Z,7760
2017-03-31T07:25:29.240Z,7804
2017-03-31T07:26:29.187Z,8052
2017-03-31T07:27:29.234Z,8200
2017-03-31T07:28:29.282Z,8356
2017-03-31T07:29:29.365Z,8488
2017-03-31T07:30:29.359Z,8608
2017-03-31T07:31:29.473Z,8712
2017-03-31T07:32:29.458Z,8800
2017-03-31T07:33:29.493Z,8916
2017-03-31T07:34:29.570Z,9040
2017-03-31T07:35:29.533Z,9244
2017-03-31T07:36:29.896Z,9188
2017-03-31T07:37:29.626Z,9064
2017-03-31T07:38:29.656Z,9040
2017-03-31T07:39:29.726Z,9108
2017-03-31T07:40:29.746Z,9084
2017-03-31T07:41:29.941Z,9128
2017-03-31T07:42:29.853Z,9084
2017-03-31T07:43:29.955Z,9124
2017-03-31T07:44:29.900Z,9216
2017-03-31T07:45:29.964Z,9356
2017-03-31T07:46:30.310Z,9412
2017-03-31T07:47:30.082Z,9404
2017-03-31T07:48:30.069Z,9376
2017-03-31T07:49:30.137Z,9404
2017-03-31T07:50:30.178Z,9296
2017-03-31T07:51:30.364Z,9080
2017-03-31T07:52:30.283Z,8704
2017-03-31T07:53:30.271Z,9060
2017-03-31T07:54:30.327Z,9600
2017-03-31T07:55:30.348Z,9576
2017-03-31T07:56:30.394Z,9736
2017-03-31T07:57:30.473Z,9944
2017-03-31T07:58:30.488Z,10136
2017-03-31T07:59:30.567Z,10048
2017-03-31T08:00:30.596Z,9888
2017-03-31T08:01:30.626Z,9820
2017-03-31T08:02:30.657Z,9864
2017-03-31T08:03:30.707Z,9944
2017-03-31T08:04:30.763Z,10200
2017-03-31T08:05:30.818Z,9980
2017-03-31T08:06:30.853Z,9472
2017-03-31T08:07:30.870Z,9732
2017-03-31T08:08:30.936Z,9876
2017-03-31T08:09:30.971Z,9900
2017-03-31T08:10:30.986Z,9672
2017-03-31T08:11:31.071Z,9492
2017-03-31T08:12:31.101Z,9520
2017-03-31T08:13:31.182Z,10104
2017-03-31T08:14:31.191Z,10408
2017-03-31T08:15:31.208Z,10360
2017-03-31T08:16:31.266Z,10128
2017-03-31T08:17:31.516Z,9840
2017-03-31T08:18:31.327Z,9828
2017-03-31T08:19:31.355Z,10196
2017-03-31T08:20:31.465Z,10480
2017-03-31T08:21:31.452Z,10656
2017-03-31T08:22:31.582Z,10676
2017-03-31T08:23:31.576Z,10904
2017-03-31T08:24:31.601Z,10580
2017-03-31T08:25:31.609Z,10304
2017-03-31T08:26:31.666Z,10180
2017-03-31T08:27:31.755Z,10012
2017-03-31T08:28:31.790Z,10608
2017-03-31T08:29:31.814Z,10428
2017-03-31T08:30:31.892Z,10008
2017-03-31T08:31:32.306Z,10656
2017-03-31T08:32:31.965Z,11504
2017-03-31T08:33:32.014Z,11412
2017-03-31T08:34:32.019Z,11148
2017-03-31T08:35:32.108Z,11584
2017-03-31T08:36:32.094Z,12384
2017-03-31T08:37:32.178Z,12744
2017-03-31T08:38:32.203Z,13028
2017-03-31T08:39:32.216Z,12508
2017-03-31T08:40:32.297Z,11192
2017-03-31T08:41:32.389Z,11568
2017-03-31T08:42:32.347Z,12164
2017-03-31T08:43:32.405Z,13284
2017-03-31T08:44:32.462Z,13364
2017-03-31T08:45:32.505Z,13716
2017-03-31T08:46:32.578Z,14048
2017-03-31T08:47:32.576Z,14432
2017-03-31T08:48:32.629Z,14792
2017-03-31T08:49:32.683Z,14976
2017-03-31T08:50:32.808Z,15392
2017-03-31T08:51:32.766Z,15712
2017-03-31T08:52:32.804Z,14940
2017-03-31T08:53:32.865Z,14172
2017-03-31T08:54:32.857Z,14812
2017-03-31T08:55:32.971Z,14808
2017-03-31T08:56:32.959Z,14652
2017-03-31T08:57:33.016Z,14736
2017-03-31T08:58:33.172Z,14604
2017-03-31T08:59:33.157Z,14924
2017-03-31T09:00:33.266Z,15296
2017-03-31T09:01:33.200Z,14968
2017-03-31T09:02:33.337Z,15168
2017-03-31T09:03:33.292Z,14448
2017-03-31T09:04:33.341Z,14944
2017-03-31T09:05:33.504Z,14928
2017-03-31T09:06:33.456Z,14900
2017-03-31T09:07:33.511Z,14620
2017-03-31T09:08:33.534Z,14468
2017-03-31T09:09:33.546Z,13556
2017-03-31T09:10:33.703Z,13632
2017-03-31T09:11:33.658Z,14100
2017-03-31T09:12:33.671Z,14924
2017-03-31T09:13:33.749Z,15520
2017-03-31T09:14:33.787Z,15232
2017-03-31T09:15:33.845Z,15872
2017-03-31T09:16:33.884Z,15328
2017-03-31T09:17:33.938Z,15392
2017-03-31T09:18:33.965Z,15168
2017-03-31T09:19:34.036Z,15456
2017-03-31T09:20:34.050Z,14628
2017-03-31T09:21:34.155Z,14472
2017-03-31T09:22:34.163Z,15104
2017-03-31T09:23:34.190Z,15104
2017-03-31T09:24:34.255Z,15072
2017-03-31T09:25:34.274Z,14880
2017-03-31T09:26:34.346Z,16384
2017-03-31T09:27:34.348Z,16992
2017-03-31T09:28:34.437Z,18208
2017-03-31T09:29:34.512Z,20096
2017-03-31T09:30:34.572Z,22176
2017-03-31T09:31:34.547Z,23552
2017-03-31T09:32:34.595Z,25536
2017-03-31T09:33:34.643Z,28288
2017-03-31T09:34:34.723Z,30112
2017-03-31T09:35:34.753Z,31072
2017-03-31T09:36:34.754Z,29888
2017-03-31T09:37:34.867Z,31488
2017-03-31T09:38:34.866Z,30336
2017-03-31T09:39:35.024Z,34848
2017-03-31T09:40:34.966Z,36448
2017-03-31T09:41:35.046Z,38208
2017-03-31T09:42:35.086Z,39264
2017-03-31T09:43:35.113Z,39296
2017-03-31T09:44:35.154Z,40800
2017-03-31T09:45:35.204Z,41472
2017-03-31T09:46:35.574Z,42272
2017-03-31T09:47:35.251Z,43008
2017-03-31T09:48:35.783Z,40608
2017-03-31T09:49:35.353Z,43168
2017-03-31T09:50:35.585Z,43488
2017-03-31T09:51:35.892Z,41952
2017-03-31T09:52:35.575Z,38944
2017-03-31T09:53:35.991Z,39040
2017-03-31T09:54:35.580Z,36704
2017-03-31T09:55:35.704Z,34912
2017-03-31T09:56:35.717Z,37152
2017-03-31T09:57:36.197Z,36416
2017-03-31T09:58:35.758Z,37728
2017-03-31T09:59:35.856Z,36896
2017-03-31T10:00:36.080Z,36384
2017-03-31T10:01:35.921Z,38688
2017-03-31T10:02:36.184Z,46400
2017-03-31T10:03:36.062Z,46720
2017-03-31T10:04:36.126Z,45728
2017-03-31T10:05:36.339Z,45824
2017-03-31T10:06:36.194Z,47680
2017-03-31T10:07:36.237Z,48032
2017-03-31T10:08:36.197Z,46112
2017-03-31T10:09:36.304Z,43904
2017-03-31T10:10:36.277Z,42336
2017-03-31T10:11:36.374Z,42368
2017-03-31T10:12:36.400Z,43136
2017-03-31T10:13:36.437Z,41504
2017-03-31T10:14:36.457Z,39552
2017-03-31T10:15:36.581Z,40512
2017-03-31T10:16:36.692Z,42432
2017-03-31T10:17:36.607Z,48768
2017-03-31T10:18:36.676Z,52768
2017-03-31T10:19:36.798Z,48960
2017-03-31T10:20:36.955Z,44800
2017-03-31T10:21:36.808Z,44160
2017-03-31T10:22:37.117Z,48576
2017-03-31T10:23:36.895Z,47392
2017-03-31T10:24:36.925Z,45984
2017-03-31T10:25:37.014Z,40640
2017-03-31T10:26:37.056Z,40576
2017-03-31T10:27:37.068Z,46336
2017-03-31T10:28:37.104Z,48832
2017-03-31T10:29:37.181Z,49184
2017-03-31T10:30:37.196Z,51424
2017-03-31T10:31:37.247Z,52000
2017-03-31T10:32:37.282Z,49856
2017-03-31T10:33:37.293Z,48416
2017-03-31T10:34:37.367Z,47392
2017-03-31T10:35:37.415Z,46368
2017-03-31T10:36:37.502Z,41312
2017-03-31T10:37:37.803Z,38240
2017-03-31T10:38:37.535Z,36416
2017-03-31T10:39:37.610Z,36960
2017-03-31T10:40:37.721Z,36416
2017-03-31T10:41:37.665Z,34176
2017-03-31T10:42:37.735Z,34272
2017-03-31T10:43:37.861Z,38048
2017-03-31T10:44:37.774Z,40768
2017-03-31T10:45:37.919Z,40096
2017-03-31T10:46:37.941Z,32672
2017-03-31T10:47:38.128Z,20512
2017-03-31T10:48:38.033Z,17152
2017-03-31T10:49:38.002Z,14604
2017-03-31T10:50:38.104Z,13024
2017-03-31T10:51:38.063Z,12264
2017-03-31T10:52:38.112Z,11804
2017-03-31T10:53:38.175Z,11808
2017-03-31T10:54:38.222Z,11612
2017-03-31T10:55:38.226Z,11164
2017-03-31T10:56:38.335Z,11204
2017-03-31T10:57:38.320Z,10976
2017-03-31T10:58:38.376Z,10528
2017-03-31T10:59:38.424Z,10588
2017-03-31T11:00:38.439Z,10492
2017-03-31T11:01:38.507Z,10316
2017-03-31T11:02:38.566Z,10132
2017-03-31T11:03:38.636Z,9988
2017-03-31T11:04:38.624Z,10132
2017-03-31T11:05:38.885Z,10128
2017-03-31T11:06:38.914Z,10072
2017-03-31T11:07:38.721Z,10092
2017-03-31T11:08:38.757Z,10132
2017-03-31T11:09:38.823Z,10004
2017-03-31T11:10:38.893Z,9764
2017-03-31T11:11:51.568Z,9692
2017-03-31T11:12:38.901Z,9756
2017-03-31T11:13:39.019Z,9700
2017-03-31T11:14:39.039Z,9600
2017-03-31T11:15:39.041Z,9400
2017-03-31T11:16:39.056Z,9300
2017-03-31T11:17:39.108Z,9136
2017-03-31T11:18:39.183Z,9056
2017-03-31T11:19:39.213Z,8852
2017-03-31T11:20:39.299Z,8864
2017-03-31T11:21:39.352Z,8852
2017-03-31T11:22:39.325Z,8980
2017-03-31T11:23:39.375Z,8980
2017-03-31T11:24:39.435Z,8856
2017-03-31T11:25:39.685Z,8812
2017-03-31T11:26:39.547Z,8820
2017-03-31T11:27:39.546Z,8764
2017-03-31T11:28:39.591Z,8584
2017-03-31T11:29:39.614Z,8552
2017-03-31T11:30:39.926Z,8552
2017-03-31T11:31:39.644Z,8408
2017-03-31T11:32:39.694Z,8192
2017-03-31T11:33:39.763Z,8128
2017-03-31T11:34:39.790Z,8108
2017-03-31T11:35:40.207Z,8116
2017-03-31T11:36:39.917Z,8072
2017-03-31T11:37:39.918Z,7992
2017-03-31T11:38:39.957Z,7988
2017-03-31T11:39:40.034Z,7888
2017-03-31T11:40:40.045Z,7720
2017-03-31T11:41:40.061Z,7624
2017-03-31T11:42:40.223Z,7348
2017-03-31T11:43:40.200Z,7168
2017-03-31T11:44:40.271Z,7268
2017-03-31T11:45:40.279Z,7324
2017-03-31T11:46:40.277Z,7300
2017-03-31T11:47:40.333Z,7184
2017-03-31T11:48:40.382Z,7096
2017-03-31T11:49:40.393Z,6992
2017-03-31T11:50:40.421Z,6920
2017-03-31T11:51:41.041Z,6784
2017-03-31T11:52:40.586Z,6760
2017-03-31T11:53:40.600Z,6684
2017-03-31T11:54:40.637Z,6712
2017-03-31T11:55:40.642Z,6644
2017-03-31T11:56:40.695Z,6648
2017-03-31T11:57:40.768Z,6732
2017-03-31T11:58:40.798Z,6828
2017-03-31T11:59:40.862Z,6860
2017-03-31T12:00:40.810Z,6856
2017-03-31T12:01:40.951Z,6824
2017-03-31T12:02:40.957Z,6772
2017-03-31T12:03:40.943Z,6708
2017-03-31T12:04:41.019Z,6660
2017-03-31T12:05:41.047Z,6632
2017-03-31T12:06:41.037Z,6608
2017-03-31T12:07:41.142Z,6604
2017-03-31T12:08:41.154Z,6636
2017-03-31T12:09:41.199Z,6668
2017-03-31T12:10:41.229Z,6712
2017-03-31T12:11:41.281Z,6756
2017-03-31T12:12:41.314Z,6788
2017-03-31T12:13:41.338Z,6820
2017-03-31T12:14:41.412Z,6832
2017-03-31T12:15:41.421Z,6792
2017-03-31T12:16:41.690Z,6728
2017-03-31T12:17:41.604Z,6696
2017-03-31T12:18:41.575Z,6652
2017-03-31T12:19:41.601Z,6588
2017-03-31T12:20:41.677Z,6564
2017-03-31T12:21:41.642Z,6544
2017-03-31T12:22:41.704Z,6484
2017-03-31T12:23:41.711Z,6460
2017-03-31T12:24:41.772Z,6452
2017-03-31T12:25:41.866Z,6452
2017-03-31T12:26:41.818Z,6432
2017-03-31T12:27:41.893Z,6404
2017-03-31T12:28:41.908Z,6396
2017-03-31T12:29:42.029Z,6364
2017-03-31T12:30:41.997Z,6368
2017-03-31T12:31:42.107Z,6348
2017-03-31T12:32:42.074Z,6292
2017-03-31T12:33:42.108Z,6292
2017-03-31T12:34:42.227Z,6304
2017-03-31T12:35:42.211Z,6316
2017-03-31T12:36:42.249Z,6308
2017-03-31T12:37:42.302Z,6240
2017-03-31T12:38:42.318Z,6240
2017-03-31T12:39:42.332Z,6252
2017-03-31T12:40:42.408Z,6264
2017-03-31T12:41:42.428Z,6316
2017-03-31T12:42:42.472Z,6340
2017-03-31T12:43:42.545Z,6332
2017-03-31T12:44:42.567Z,6312
2017-03-31T12:45:42.609Z,6292
2017-03-31T12:46:42.662Z,6316
2017-03-31T12:47:42.660Z,6344
2017-03-31T12:48:42.733Z,6344
2017-03-31T12:49:42.804Z,6332
2017-03-31T12:50:42.851Z,6332
2017-03-31T12:51:43.047Z,6328
2017-03-31T12:52:42.813Z,6332
2017-03-31T12:53:42.928Z,6308
2017-03-31T12:54:42.937Z,6284
2017-03-31T12:55:42.997Z,6288
2017-03-31T12:56:43.013Z,6304
2017-03-31T12:57:43.038Z,6324
2017-03-31T12:58:43.169Z,6332
2017-03-31T12:59:43.155Z,6336
2017-03-31T13:00:43.566Z,6348
2017-03-31T13:01:46.230Z,6336
2017-03-31T13:02:43.237Z,6324
2017-03-31T13:03:43.332Z,6284
2017-03-31T13:04:43.313Z,6276
2017-03-31T13:05:43.405Z,6248
2017-03-31T13:06:43.403Z,6224
2017-03-31T13:07:43.433Z,6196
2017-03-31T13:08:43.499Z,6160
2017-03-31T13:09:43.523Z,6116
2017-03-31T13:10:43.569Z,6072
2017-03-31T13:11:43.611Z,6044
2017-03-31T13:12:43.636Z,5984
2017-03-31T13:13:43.666Z,5960
2017-03-31T13:14:43.718Z,5940
2017-03-31T13:15:43.765Z,5936
2017-03-31T13:16:43.860Z,5940
2017-03-31T13:17:43.907Z,5952
2017-03-31T13:18:43.893Z,5968
2017-03-31T13:19:43.959Z,5960
2017-03-31T13:20:43.994Z,5968
2017-03-31T13:21:43.980Z,5940
2017-03-31T13:22:44.032Z,5936
2017-03-31T13:23:44.076Z,5912
2017-03-31T13:24:44.132Z,5864
2017-03-31T13:25:44.205Z,5808
2017-03-31T13:26:44.553Z,5808
2017-03-31T13:27:44.243Z,5780
2017-03-31T13:28:44.271Z,5776
2017-03-31T13:29:44.359Z,5776
2017-03-31T13:30:44.341Z,5744
2017-03-31T13:31:44.409Z,5696
2017-03-31T13:32:44.419Z,5648
2017-03-31T13:33:44.507Z,5600
2017-03-31T13:34:44.769Z,5508
2017-03-31T13:35:44.588Z,5396
2017-03-31T13:36:44.611Z,5308
2017-03-31T13:37:44.646Z,5196
2017-03-31T13:38:45.046Z,5100
2017-03-31T13:39:44.721Z,5020
2017-03-31T13:40:44.771Z,4952
2017-03-31T13:41:45.151Z,4872